createdAt,value
2022-08-04T00:03:17.546Z,4.90
2022-08-04T00:08:23.421Z,6.25
2022-08-04T00:13:26.417Z,8.65
2022-08-04T00:18:29.218Z,4.15
2022-08-04T00:23:28.562Z,8.57
2022-08-04T00:28:49.473Z,7.72
2022-08-04T00:33:49.715Z,12.02
2022-08-04T00:38:48.841Z,11.02
2022-08-04T00:43:59.337Z,9.93
2022-08-04T00:49:42.016Z,6.65
2022-08-04T00:55:04.200Z,4.40
2022-08-04T01:00:10.919Z,4.03
2022-08-04T01:05:21.505Z,6.32
2022-08-04T01:10:28.470Z,4.82
2022-08-04T01:15:53.981Z,2.33
2022-08-04T01:21:11.399Z,3.50
2022-08-04T01:26:57.944Z,4.45
2022-08-04T01:32:02.853Z,6.05
2022-08-04T01:37:08.787Z,6.15
2022-08-04T01:42:09.625Z,3.17
2022-08-04T01:47:11.048Z,3.08
2022-08-04T01:52:11.538Z,3.67
2022-08-04T01:57:38.371Z,7.15
2022-08-04T02:02:31.246Z,6.60
2022-08-04T02:07:51.490Z,4.68
2022-08-04T02:13:07.078Z,3.13
2022-08-04T02:18:13.733Z,4.60
2022-08-04T02:23:16.464Z,8.90
2022-08-04T02:28:24.129Z,6.40
2022-08-04T02:33:29.998Z,5.68
2022-08-04T02:38:41.170Z,9.70
2022-08-04T02:43:51.734Z,4.13
2022-08-04T02:48:54.122Z,3.13
2022-08-04T02:53:56.294Z,6.45
2022-08-04T02:58:58.032Z,5.03
2022-08-04T03:04:24.848Z,5.35
2022-08-04T03:10:04.099Z,8.65
2022-08-04T03:15:30.552Z,5.40
2022-08-04T03:21:07.197Z,7.90
2022-08-04T03:26:49.472Z,5.90
2022-08-04T03:32:17.994Z,8.90
2022-08-04T03:37:45.773Z,4.93
2022-08-04T03:43:58.000Z,6.90
2022-08-04T03:49:04.583Z,13.55
2022-08-04T03:54:37.862Z,12.70
2022-08-04T03:59:52.124Z,27.25
2022-08-04T04:05:09.157Z,18.42
2022-08-04T04:10:31.306Z,19.23
2022-08-04T04:15:50.216Z,17.92
2022-08-04T04:21:21.532Z,16.42
2022-08-04T04:26:39.076Z,11.05
2022-08-04T04:31:57.879Z,13.82
2022-08-04T04:37:16.890Z,15.65
2022-08-04T04:42:30.090Z,35.63
2022-08-04T04:48:08.879Z,43.55
2022-08-04T04:53:04.002Z,42.47
2022-08-04T04:58:03.095Z,29.13
2022-08-04T05:03:23.946Z,24.85
2022-08-04T05:08:47.440Z,20.00
2022-08-04T05:14:34.477Z,13.43
2022-08-04T05:19:22.410Z,8.48
2022-08-04T05:24:23.483Z,10.35
2022-08-04T05:29:31.802Z,4.10
2022-08-04T05:34:36.871Z,4.50
2022-08-04T05:39:40.135Z,6.00
2022-08-04T05:44:39.698Z,5.57
2022-08-04T05:49:41.197Z,10.65
2022-08-04T05:54:41.466Z,10.02
2022-08-04T05:59:42.890Z,6.20
2022-08-04T06:04:44.926Z,7.80
2022-08-04T06:09:43.338Z,13.85
2022-08-04T06:14:44.443Z,11.13
2022-08-04T06:19:59.423Z,10.85
2022-08-04T06:25:04.020Z,7.90
2022-08-04T06:30:07.122Z,7.20
2022-08-04T06:35:08.988Z,14.27
2022-08-04T06:40:31.812Z,4.35
2022-08-04T06:45:30.627Z,5.70
2022-08-04T06:51:25.681Z,2.95
2022-08-04T06:55:50.273Z,6.63
2022-08-04T07:00:49.729Z,6.18
2022-08-04T07:05:50.223Z,4.00
2022-08-04T07:10:48.867Z,5.93
2022-08-04T07:15:48.774Z,14.00
2022-08-04T07:20:49.346Z,11.13
2022-08-04T07:26:00.014Z,4.43
2022-08-04T07:31:34.326Z,5.40
2022-08-04T07:36:41.953Z,5.30
2022-08-04T07:41:49.614Z,5.00
2022-08-04T07:46:47.808Z,6.35
2022-08-04T07:51:47.754Z,5.80
2022-08-04T07:56:49.056Z,5.38
2022-08-04T08:01:47.921Z,8.98
2022-08-04T08:06:47.552Z,11.13
2022-08-04T08:12:37.069Z,5.43
2022-08-04T08:17:06.799Z,10.35
2022-08-04T08:22:07.005Z,10.20
2022-08-04T08:27:06.010Z,6.45
2022-08-04T08:32:09.108Z,3.97
2022-08-04T08:37:15.657Z,7.60
2022-08-04T08:42:41.683Z,5.68
2022-08-04T08:48:05.560Z,4.60
2022-08-04T08:53:23.945Z,6.47
2022-08-04T08:58:43.151Z,7.03
2022-08-04T09:04:28.830Z,5.22
2022-08-04T09:10:14.486Z,3.65
2022-08-04T09:15:18.252Z,2.20
2022-08-04T09:20:24.080Z,11.07
2022-08-04T09:25:26.082Z,4.03
2022-08-04T09:30:34.061Z,4.23
2022-08-04T09:35:41.569Z,5.40
2022-08-04T09:40:55.339Z,7.00
2022-08-04T09:46:03.647Z,2.83
2022-08-04T09:51:08.974Z,2.47
2022-08-04T09:56:15.833Z,5.28
2022-08-04T10:01:23.358Z,5.55
2022-08-04T10:06:49.247Z,2.38
2022-08-04T10:12:00.178Z,6.47
2022-08-04T10:17:17.504Z,5.88
2022-08-04T10:22:29.617Z,5.75
2022-08-04T10:27:34.295Z,3.92
2022-08-04T10:32:43.102Z,6.75
2022-08-04T10:37:56.528Z,2.97
2022-08-04T10:43:05.027Z,4.38
2022-08-04T10:48:18.558Z,4.90
2022-08-04T10:53:36.005Z,2.55
2022-08-04T10:58:47.510Z,2.60
2022-08-04T11:03:53.001Z,2.00
2022-08-04T11:08:55.168Z,7.07
2022-08-04T11:14:01.786Z,2.38
2022-08-04T11:19:12.675Z,3.08
2022-08-04T11:24:17.856Z,4.30
2022-08-04T11:29:25.817Z,4.05
2022-08-04T11:34:27.509Z,2.33
2022-08-04T11:39:30.977Z,4.13
2022-08-04T11:44:38.780Z,8.13
2022-08-04T11:49:57.360Z,4.65
2022-08-04T11:54:58.301Z,10.18
2022-08-04T11:59:59.506Z,5.43
2022-08-04T12:05:09.392Z,5.50
2022-08-04T12:10:41.139Z,9.07
2022-08-04T12:15:51.286Z,3.85
2022-08-04T12:20:57.001Z,3.28
2022-08-04T12:26:04.382Z,4.18
2022-08-04T12:31:11.575Z,10.82
2022-08-04T12:36:21.384Z,6.28
2022-08-04T12:41:25.186Z,6.78
2022-08-04T12:46:27.985Z,4.95
2022-08-04T12:51:31.202Z,5.93
2022-08-04T12:56:48.247Z,2.63
2022-08-04T13:02:11.004Z,8.55
2022-08-04T13:07:14.033Z,5.68
2022-08-04T13:12:14.745Z,3.55
2022-08-04T13:17:13.121Z,5.28
2022-08-04T13:22:17.048Z,4.43
2022-08-04T13:27:19.113Z,4.65
2022-08-04T13:32:20.479Z,6.78
2022-08-04T13:37:23.169Z,3.80
2022-08-04T13:42:22.081Z,9.38
2022-08-04T13:47:22.357Z,7.82
2022-08-04T13:52:27.162Z,6.18
2022-08-04T13:57:31.393Z,12.73
2022-08-04T14:02:35.534Z,4.20
2022-08-04T14:07:46.509Z,4.15
2022-08-04T14:12:47.783Z,6.90
2022-08-04T14:17:45.926Z,5.18
2022-08-04T14:22:45.450Z,4.97
2022-08-04T14:27:46.118Z,3.95
2022-08-04T14:32:57.728Z,6.85
2022-08-04T14:37:59.103Z,8.35
2022-08-04T14:43:05.237Z,6.90
2022-08-04T14:48:09.246Z,6.22
2022-08-04T14:53:10.946Z,3.88
2022-08-04T14:58:36.510Z,5.03
2022-08-04T15:03:36.543Z,8.52
2022-08-04T15:08:51.885Z,4.50
2022-08-04T15:13:50.307Z,10.75
2022-08-04T15:18:49.426Z,5.68
2022-08-04T15:23:48.014Z,3.08
2022-08-04T15:28:51.516Z,2.67
2022-08-04T15:33:50.861Z,9.93
2022-08-04T15:38:58.742Z,4.88
2022-08-04T15:44:19.182Z,3.53
2022-08-04T15:49:21.617Z,8.27
2022-08-04T15:54:30.772Z,9.60
2022-08-04T16:00:01.362Z,3.60
2022-08-04T16:05:34.511Z,4.20
2022-08-04T16:10:41.660Z,6.63
2022-08-04T16:15:43.634Z,10.70
2022-08-04T16:20:47.225Z,5.78
2022-08-04T16:25:52.064Z,5.93
2022-08-04T16:30:51.713Z,8.13
2022-08-04T16:35:52.183Z,7.70
2022-08-04T16:41:07.097Z,5.40
2022-08-04T16:46:12.704Z,7.50
2022-08-04T16:51:16.754Z,4.88
2022-08-04T16:56:18.849Z,3.60
2022-08-04T17:01:32.238Z,8.55
2022-08-04T17:06:36.215Z,6.78
2022-08-04T17:11:34.667Z,5.95
2022-08-04T17:16:35.190Z,5.75
2022-08-04T17:21:36.307Z,8.15
2022-08-04T17:26:40.317Z,8.20
2022-08-04T17:31:40.902Z,7.90
2022-08-04T17:36:40.413Z,7.25
2022-08-04T17:41:42.430Z,8.70
2022-08-04T17:46:49.786Z,4.45
2022-08-04T17:52:01.687Z,5.88
2022-08-04T17:57:15.472Z,7.20
2022-08-04T18:02:22.623Z,7.03
2022-08-04T18:08:35.246Z,9.52
2022-08-04T18:12:55.802Z,6.15
2022-08-04T18:18:22.216Z,3.03
2022-08-04T18:23:16.557Z,5.85
2022-08-04T18:28:18.346Z,4.20
2022-08-04T18:33:39.968Z,8.45
2022-08-04T18:43:58.204Z,6.07
2022-08-04T18:48:59.357Z,3.08
2022-08-04T18:53:58.843Z,4.28
2022-08-04T18:58:57.564Z,3.10
2022-08-04T19:03:59.842Z,6.65
2022-08-04T19:09:00.399Z,5.50
2022-08-04T19:13:58.993Z,4.03
2022-08-04T19:18:57.411Z,4.35
2022-08-04T19:24:28.421Z,5.85
2022-08-04T19:29:15.941Z,3.97
2022-08-04T19:34:14.158Z,3.55
2022-08-04T19:39:14.765Z,7.15
2022-08-04T19:44:14.277Z,5.75
2022-08-04T19:50:03.018Z,3.80
2022-08-04T19:54:32.332Z,4.65
2022-08-04T19:59:32.424Z,4.65
2022-08-04T20:09:53.388Z,3.90
2022-08-04T20:14:51.905Z,6.15
2022-08-04T20:19:53.133Z,4.97
2022-08-04T20:25:00.606Z,6.97
2022-08-04T20:30:15.815Z,4.43
2022-08-04T20:35:28.743Z,5.88
2022-08-04T20:40:28.761Z,3.05
2022-08-04T20:45:55.614Z,5.30
2022-08-04T20:50:47.178Z,6.82
2022-08-04T20:55:54.964Z,4.72
2022-08-04T21:00:55.060Z,3.15
2022-08-04T21:05:53.491Z,5.88
2022-08-04T21:10:52.977Z,4.22
2022-08-04T21:15:59.373Z,2.10
2022-08-04T21:20:57.674Z,3.28
2022-08-04T21:26:04.531Z,9.85
2022-08-04T21:31:11.243Z,3.78
2022-08-04T21:36:20.295Z,2.88
2022-08-04T21:41:24.649Z,4.95
2022-08-04T21:46:25.345Z,4.75
2022-08-04T21:52:00.219Z,2.53
2022-08-04T21:56:51.714Z,3.47
2022-08-04T22:01:54.654Z,2.80
2022-08-04T22:06:53.394Z,4.07
2022-08-04T22:11:52.886Z,5.45
2022-08-04T22:16:52.026Z,5.18
2022-08-04T22:21:52.560Z,3.95
2022-08-04T22:26:52.127Z,3.80
2022-08-04T22:31:56.121Z,2.97
2022-08-04T22:42:04.019Z,4.32
2022-08-04T22:47:02.877Z,5.43
2022-08-04T22:52:02.871Z,4.65
2022-08-04T22:57:09.784Z,2.95
2022-08-04T23:02:08.194Z,4.10
2022-08-04T23:07:09.287Z,7.93
2022-08-04T23:12:24.462Z,3.38
2022-08-04T23:17:24.239Z,5.90
2022-08-04T23:22:42.265Z,9.95
2022-08-04T23:27:43.939Z,4.60
2022-08-04T23:32:46.509Z,9.10
2022-08-04T23:37:48.364Z,5.80
2022-08-04T23:42:56.986Z,6.25
2022-08-04T23:48:18.344Z,8.15
2022-08-04T23:53:18.666Z,6.97
2022-08-04T23:58:28.357Z,8.90
